sensor_id;sensor_type;location;lat;lon;timestamp;P1;durP1;ratioP1;P2;durP2;ratioP2
18776;SDS011;9517;51.174;4.160;2023-02-03T00:00:00;18.77;;;4.20;;
18776;SDS011;9517;51.174;4.160;2023-02-03T00:02:29;17.13;;;4.20;;
18776;SDS011;9517;51.174;4.160;2023-02-03T00:04:56;16.70;;;4.50;;
18776;SDS011;9517;51.174;4.160;2023-02-03T00:07:23;15.77;;;3.70;;
18776;SDS011;9517;51.174;4.160;2023-02-03T00:09:51;19.70;;;5.03;;
18776;SDS011;9517;51.174;4.160;2023-02-03T00:12:18;17.13;;;4.43;;
18776;SDS011;9517;51.174;4.160;2023-02-03T00:14:47;19.63;;;4.67;;
18776;SDS011;9517;51.174;4.160;2023-02-03T00:17:14;19.67;;;5.10;;
18776;SDS011;9517;51.174;4.160;2023-02-03T00:19:44;22.33;;;5.20;;
18776;SDS011;9517;51.174;4.160;2023-02-03T00:22:12;20.03;;;4.50;;
18776;SDS011;9517;51.174;4.160;2023-02-03T00:24:39;21.70;;;5.70;;
18776;SDS011;9517;51.174;4.160;2023-02-03T00:27:06;21.20;;;4.90;;
18776;SDS011;9517;51.174;4.160;2023-02-03T00:29:34;18.63;;;4.73;;
18776;SDS011;9517;51.174;4.160;2023-02-03T00:32:03;17.37;;;4.60;;
18776;SDS011;9517;51.174;4.160;2023-02-03T00:34:30;24.73;;;4.50;;
18776;SDS011;9517;51.174;4.160;2023-02-03T00:36:58;16.83;;;4.07;;
18776;SDS011;9517;51.174;4.160;2023-02-03T00:39:25;20.63;;;4.37;;
18776;SDS011;9517;51.174;4.160;2023-02-03T00:41:52;15.43;;;4.53;;
18776;SDS011;9517;51.174;4.160;2023-02-03T00:44:20;20.73;;;4.53;;
18776;SDS011;9517;51.174;4.160;2023-02-03T00:46:47;21.30;;;3.87;;
18776;SDS011;9517;51.174;4.160;2023-02-03T00:49:16;15.40;;;3.47;;
18776;SDS011;9517;51.174;4.160;2023-02-03T00:51:43;21.97;;;3.90;;
18776;SDS011;9517;51.174;4.160;2023-02-03T00:54:11;15.77;;;3.80;;
18776;SDS011;9517;51.174;4.160;2023-02-03T00:56:38;18.33;;;5.20;;
18776;SDS011;9517;51.174;4.160;2023-02-03T00:59:06;17.20;;;3.93;;
18776;SDS011;9517;51.174;4.160;2023-02-03T01:01:33;16.67;;;4.10;;
18776;SDS011;9517;51.174;4.160;2023-02-03T01:04:01;20.33;;;4.30;;
18776;SDS011;9517;51.174;4.160;2023-02-03T01:06:32;24.43;;;4.37;;
18776;SDS011;9517;51.174;4.160;2023-02-03T01:09:00;14.77;;;3.37;;
18776;SDS011;9517;51.174;4.160;2023-02-03T01:11:29;13.83;;;3.63;;
18776;SDS011;9517;51.174;4.160;2023-02-03T01:13:57;14.73;;;3.73;;
18776;SDS011;9517;51.174;4.160;2023-02-03T01:16:26;15.43;;;3.57;;
18776;SDS011;9517;51.174;4.160;2023-02-03T01:18:55;15.13;;;3.17;;
18776;SDS011;9517;51.174;4.160;2023-02-03T01:21:23;15.13;;;3.20;;
18776;SDS011;9517;51.174;4.160;2023-02-03T01:23:53;16.17;;;3.87;;
18776;SDS011;9517;51.174;4.160;2023-02-03T01:26:21;16.83;;;4.73;;
18776;SDS011;9517;51.174;4.160;2023-02-03T01:28:49;17.07;;;4.33;;
18776;SDS011;9517;51.174;4.160;2023-02-03T01:31:18;17.40;;;3.80;;
18776;SDS011;9517;51.174;4.160;2023-02-03T01:33:46;13.07;;;3.03;;
18776;SDS011;9517;51.174;4.160;2023-02-03T01:36:14;11.73;;;3.00;;
18776;SDS011;9517;51.174;4.160;2023-02-03T01:38:43;21.40;;;3.93;;
18776;SDS011;9517;51.174;4.160;2023-02-03T01:41:13;12.73;;;3.73;;
18776;SDS011;9517;51.174;4.160;2023-02-03T01:43:42;12.43;;;3.00;;
18776;SDS011;9517;51.174;4.160;2023-02-03T01:46:15;17.17;;;3.83;;
18776;SDS011;9517;51.174;4.160;2023-02-03T01:48:50;18.60;;;3.60;;
18776;SDS011;9517;51.174;4.160;2023-02-03T01:51:18;15.20;;;4.00;;
18776;SDS011;9517;51.174;4.160;2023-02-03T01:53:46;17.10;;;3.40;;
18776;SDS011;9517;51.174;4.160;2023-02-03T01:56:16;15.33;;;2.97;;
18776;SDS011;9517;51.174;4.160;2023-02-03T01:58:44;15.90;;;3.70;;
18776;SDS011;9517;51.174;4.160;2023-02-03T02:01:15;14.03;;;3.00;;
18776;SDS011;9517;51.174;4.160;2023-02-03T02:03:44;17.17;;;3.13;;
18776;SDS011;9517;51.174;4.160;2023-02-03T02:06:16;15.40;;;3.20;;
18776;SDS011;9517;51.174;4.160;2023-02-03T02:08:44;16.57;;;2.70;;
18776;SDS011;9517;51.174;4.160;2023-02-03T02:11:15;17.23;;;3.20;;
18776;SDS011;9517;51.174;4.160;2023-02-03T02:13:45;10.77;;;2.90;;
18776;SDS011;9517;51.174;4.160;2023-02-03T02:16:16;12.80;;;2.20;;
18776;SDS011;9517;51.174;4.160;2023-02-03T02:19:06;12.37;;;2.87;;
18776;SDS011;9517;51.174;4.160;2023-02-03T02:21:56;17.83;;;3.07;;
18776;SDS011;9517;51.174;4.160;2023-02-03T02:30:39;14.30;;;2.43;;
18776;SDS011;9517;51.174;4.160;2023-02-03T02:33:24;12.20;;;2.30;;
18776;SDS011;9517;51.174;4.160;2023-02-03T02:36:04;8.63;;;2.47;;
18776;SDS011;9517;51.174;4.160;2023-02-03T02:38:40;14.13;;;2.40;;
18776;SDS011;9517;51.174;4.160;2023-02-03T02:41:15;11.83;;;2.30;;
18776;SDS011;9517;51.174;4.160;2023-02-03T02:43:48;15.50;;;2.80;;
18776;SDS011;9517;51.174;4.160;2023-02-03T02:46:26;15.67;;;2.47;;
18776;SDS011;9517;51.174;4.160;2023-02-03T02:49:02;12.23;;;2.43;;
18776;SDS011;9517;51.174;4.160;2023-02-03T02:51:33;10.03;;;2.20;;
18776;SDS011;9517;51.174;4.160;2023-02-03T02:54:05;9.67;;;2.27;;
18776;SDS011;9517;51.174;4.160;2023-02-03T02:56:35;12.63;;;2.50;;
18776;SDS011;9517;51.174;4.160;2023-02-03T02:59:04;9.27;;;2.10;;
18776;SDS011;9517;51.174;4.160;2023-02-03T03:01:33;13.13;;;2.40;;
18776;SDS011;9517;51.174;4.160;2023-02-03T03:04:04;13.03;;;2.40;;
18776;SDS011;9517;51.174;4.160;2023-02-03T03:06:36;13.47;;;2.93;;
18776;SDS011;9517;51.174;4.160;2023-02-03T03:09:13;14.17;;;2.70;;
18776;SDS011;9517;51.174;4.160;2023-02-03T03:11:47;12.97;;;2.27;;
18776;SDS011;9517;51.174;4.160;2023-02-03T03:14:18;14.73;;;2.97;;
18776;SDS011;9517;51.174;4.160;2023-02-03T03:16:47;14.27;;;3.10;;
18776;SDS011;9517;51.174;4.160;2023-02-03T03:19:20;11.50;;;2.60;;
18776;SDS011;9517;51.174;4.160;2023-02-03T03:21:51;11.53;;;2.70;;
18776;SDS011;9517;51.174;4.160;2023-02-03T03:24:31;12.80;;;2.27;;
18776;SDS011;9517;51.174;4.160;2023-02-03T03:27:04;14.87;;;3.00;;
18776;SDS011;9517;51.174;4.160;2023-02-03T03:29:34;10.40;;;2.23;;
18776;SDS011;9517;51.174;4.160;2023-02-03T03:32:07;9.27;;;2.13;;
18776;SDS011;9517;51.174;4.160;2023-02-03T03:34:36;11.70;;;2.20;;
18776;SDS011;9517;51.174;4.160;2023-02-03T03:37:06;15.13;;;2.53;;
18776;SDS011;9517;51.174;4.160;2023-02-03T03:39:41;13.67;;;2.53;;
18776;SDS011;9517;51.174;4.160;2023-02-03T03:42:16;20.50;;;3.43;;
18776;SDS011;9517;51.174;4.160;2023-02-03T03:44:47;12.23;;;2.00;;
18776;SDS011;9517;51.174;4.160;2023-02-03T03:47:22;12.17;;;2.80;;
18776;SDS011;9517;51.174;4.160;2023-02-03T03:49:57;16.53;;;2.67;;
18776;SDS011;9517;51.174;4.160;2023-02-03T03:52:28;11.90;;;2.40;;
18776;SDS011;9517;51.174;4.160;2023-02-03T03:54:58;16.87;;;2.53;;
18776;SDS011;9517;51.174;4.160;2023-02-03T03:57:32;12.47;;;2.23;;
18776;SDS011;9517;51.174;4.160;2023-02-03T04:00:04;13.17;;;2.43;;
18776;SDS011;9517;51.174;4.160;2023-02-03T04:02:38;14.67;;;2.37;;
18776;SDS011;9517;51.174;4.160;2023-02-03T04:05:09;14.13;;;2.20;;
18776;SDS011;9517;51.174;4.160;2023-02-03T04:07:39;9.33;;;2.10;;
18776;SDS011;9517;51.174;4.160;2023-02-03T04:10:11;11.27;;;2.33;;
18776;SDS011;9517;51.174;4.160;2023-02-03T04:12:46;12.83;;;2.00;;
18776;SDS011;9517;51.174;4.160;2023-02-03T04:15:13;13.17;;;2.20;;
18776;SDS011;9517;51.174;4.160;2023-02-03T04:17:40;12.03;;;2.77;;
18776;SDS011;9517;51.174;4.160;2023-02-03T04:20:10;10.43;;;2.10;;
18776;SDS011;9517;51.174;4.160;2023-02-03T04:22:38;10.90;;;1.87;;
18776;SDS011;9517;51.174;4.160;2023-02-03T04:25:05;15.87;;;2.87;;
18776;SDS011;9517;51.174;4.160;2023-02-03T04:27:33;9.97;;;2.00;;
18776;SDS011;9517;51.174;4.160;2023-02-03T04:30:00;12.63;;;1.90;;
18776;SDS011;9517;51.174;4.160;2023-02-03T04:32:28;12.17;;;2.10;;
18776;SDS011;9517;51.174;4.160;2023-02-03T04:34:55;16.80;;;2.70;;
18776;SDS011;9517;51.174;4.160;2023-02-03T04:37:24;11.00;;;2.17;;
18776;SDS011;9517;51.174;4.160;2023-02-03T04:39:52;13.67;;;2.20;;
18776;SDS011;9517;51.174;4.160;2023-02-03T04:42:22;10.80;;;1.97;;
18776;SDS011;9517;51.174;4.160;2023-02-03T04:44:50;10.87;;;2.93;;
18776;SDS011;9517;51.174;4.160;2023-02-03T04:47:17;11.13;;;2.43;;
18776;SDS011;9517;51.174;4.160;2023-02-03T04:49:45;13.47;;;2.67;;
18776;SDS011;9517;51.174;4.160;2023-02-03T04:52:13;10.37;;;2.23;;
18776;SDS011;9517;51.174;4.160;2023-02-03T04:54:42;17.37;;;2.50;;
18776;SDS011;9517;51.174;4.160;2023-02-03T04:57:09;10.60;;;1.97;;
18776;SDS011;9517;51.174;4.160;2023-02-03T04:59:44;13.30;;;2.70;;
18776;SDS011;9517;51.174;4.160;2023-02-03T05:09:33;13.90;;;2.30;;
18776;SDS011;9517;51.174;4.160;2023-02-03T05:12:02;10.33;;;2.40;;
18776;SDS011;9517;51.174;4.160;2023-02-03T05:17:50;11.20;;;2.17;;
18776;SDS011;9517;51.174;4.160;2023-02-03T05:20:20;12.83;;;2.23;;
18776;SDS011;9517;51.174;4.160;2023-02-03T05:22:56;17.07;;;3.07;;
18776;SDS011;9517;51.174;4.160;2023-02-03T05:25:27;13.37;;;2.67;;
18776;SDS011;9517;51.174;4.160;2023-02-03T05:34:11;8.63;;;2.00;;
18776;SDS011;9517;51.174;4.160;2023-02-03T05:43:54;7.97;;;1.90;;
18776;SDS011;9517;51.174;4.160;2023-02-03T05:46:22;11.77;;;2.30;;
18776;SDS011;9517;51.174;4.160;2023-02-03T05:48:49;10.50;;;2.37;;
18776;SDS011;9517;51.174;4.160;2023-02-03T05:51:18;11.73;;;2.70;;
18776;SDS011;9517;51.174;4.160;2023-02-03T05:53:46;11.10;;;1.93;;
18776;SDS011;9517;51.174;4.160;2023-02-03T05:56:14;12.90;;;2.40;;
18776;SDS011;9517;51.174;4.160;2023-02-03T05:58:42;15.87;;;2.90;;
18776;SDS011;9517;51.174;4.160;2023-02-03T06:07:32;11.10;;;2.17;;
18776;SDS011;9517;51.174;4.160;2023-02-03T06:10:06;14.37;;;2.43;;
18776;SDS011;9517;51.174;4.160;2023-02-03T06:12:33;13.10;;;2.33;;
18776;SDS011;9517;51.174;4.160;2023-02-03T06:15:02;9.30;;;2.63;;
18776;SDS011;9517;51.174;4.160;2023-02-03T06:17:30;11.27;;;2.30;;
18776;SDS011;9517;51.174;4.160;2023-02-03T06:19:58;12.17;;;2.10;;
18776;SDS011;9517;51.174;4.160;2023-02-03T06:22:28;10.33;;;2.20;;
18776;SDS011;9517;51.174;4.160;2023-02-03T06:24:56;9.77;;;2.00;;
18776;SDS011;9517;51.174;4.160;2023-02-03T06:27:36;12.23;;;2.13;;
18776;SDS011;9517;51.174;4.160;2023-02-03T06:30:06;13.80;;;2.77;;
18776;SDS011;9517;51.174;4.160;2023-02-03T06:32:35;12.17;;;1.90;;
18776;SDS011;9517;51.174;4.160;2023-02-03T06:35:14;7.30;;;1.97;;
18776;SDS011;9517;51.174;4.160;2023-02-03T06:37:42;11.37;;;1.90;;
18776;SDS011;9517;51.174;4.160;2023-02-03T06:43:16;10.37;;;2.07;;
18776;SDS011;9517;51.174;4.160;2023-02-03T06:45:44;11.97;;;1.90;;
18776;SDS011;9517;51.174;4.160;2023-02-03T06:48:14;11.57;;;2.00;;
18776;SDS011;9517;51.174;4.160;2023-02-03T06:50:45;17.20;;;2.63;;
18776;SDS011;9517;51.174;4.160;2023-02-03T06:53:18;13.83;;;2.03;;
18776;SDS011;9517;51.174;4.160;2023-02-03T06:58:46;14.80;;;2.13;;
18776;SDS011;9517;51.174;4.160;2023-02-03T07:01:29;8.53;;;1.83;;
18776;SDS011;9517;51.174;4.160;2023-02-03T07:04:14;14.70;;;2.30;;
18776;SDS011;9517;51.174;4.160;2023-02-03T07:06:45;11.73;;;1.90;;
18776;SDS011;9517;51.174;4.160;2023-02-03T07:09:33;14.83;;;2.57;;
18776;SDS011;9517;51.174;4.160;2023-02-03T07:12:07;11.37;;;1.80;;
18776;SDS011;9517;51.174;4.160;2023-02-03T07:17:57;11.67;;;2.00;;
18776;SDS011;9517;51.174;4.160;2023-02-03T07:38:51;9.90;;;2.10;;
18776;SDS011;9517;51.174;4.160;2023-02-03T07:41:19;13.70;;;2.60;;
18776;SDS011;9517;51.174;4.160;2023-02-03T07:43:49;14.67;;;2.03;;
18776;SDS011;9517;51.174;4.160;2023-02-03T07:46:32;11.47;;;2.13;;
18776;SDS011;9517;51.174;4.160;2023-02-03T07:49:03;7.77;;;2.20;;
18776;SDS011;9517;51.174;4.160;2023-02-03T07:51:31;8.07;;;2.03;;
18776;SDS011;9517;51.174;4.160;2023-02-03T07:54:00;11.53;;;1.90;;
18776;SDS011;9517;51.174;4.160;2023-02-03T07:56:28;12.87;;;2.47;;
18776;SDS011;9517;51.174;4.160;2023-02-03T07:58:59;8.80;;;2.20;;
18776;SDS011;9517;51.174;4.160;2023-02-03T08:01:34;13.20;;;2.77;;
18776;SDS011;9517;51.174;4.160;2023-02-03T08:04:07;13.80;;;2.67;;
18776;SDS011;9517;51.174;4.160;2023-02-03T08:06:40;12.43;;;2.43;;
18776;SDS011;9517;51.174;4.160;2023-02-03T08:09:13;10.77;;;2.20;;
18776;SDS011;9517;51.174;4.160;2023-02-03T08:11:47;13.33;;;2.30;;
18776;SDS011;9517;51.174;4.160;2023-02-03T08:14:19;9.90;;;1.80;;
18776;SDS011;9517;51.174;4.160;2023-02-03T08:17:03;7.37;;;2.00;;
18776;SDS011;9517;51.174;4.160;2023-02-03T08:19:33;12.47;;;2.53;;
18776;SDS011;9517;51.174;4.160;2023-02-03T08:22:09;7.73;;;2.17;;
18776;SDS011;9517;51.174;4.160;2023-02-03T08:24:45;10.90;;;2.80;;
18776;SDS011;9517;51.174;4.160;2023-02-03T08:30:46;14.33;;;2.73;;
18776;SDS011;9517;51.174;4.160;2023-02-03T08:34:09;10.23;;;2.13;;
18776;SDS011;9517;51.174;4.160;2023-02-03T08:37:19;12.87;;;2.70;;
18776;SDS011;9517;51.174;4.160;2023-02-03T08:43:56;13.77;;;2.30;;
18776;SDS011;9517;51.174;4.160;2023-02-03T08:46:41;13.20;;;2.33;;
18776;SDS011;9517;51.174;4.160;2023-02-03T08:49:26;11.83;;;3.13;;
18776;SDS011;9517;51.174;4.160;2023-02-03T08:52:12;14.13;;;2.33;;
18776;SDS011;9517;51.174;4.160;2023-02-03T08:55:03;8.97;;;1.90;;
18776;SDS011;9517;51.174;4.160;2023-02-03T08:57:43;9.97;;;2.20;;
18776;SDS011;9517;51.174;4.160;2023-02-03T09:00:37;12.57;;;2.60;;
18776;SDS011;9517;51.174;4.160;2023-02-03T09:03:18;15.83;;;2.37;;
18776;SDS011;9517;51.174;4.160;2023-02-03T09:05:46;12.20;;;2.60;;
18776;SDS011;9517;51.174;4.160;2023-02-03T09:08:20;11.93;;;2.50;;
18776;SDS011;9517;51.174;4.160;2023-02-03T09:11:09;13.87;;;3.00;;
18776;SDS011;9517;51.174;4.160;2023-02-03T09:13:39;8.87;;;2.60;;
18776;SDS011;9517;51.174;4.160;2023-02-03T09:16:10;12.97;;;3.70;;
18776;SDS011;9517;51.174;4.160;2023-02-03T09:18:38;12.03;;;3.10;;
18776;SDS011;9517;51.174;4.160;2023-02-03T09:21:06;17.10;;;4.43;;
18776;SDS011;9517;51.174;4.160;2023-02-03T09:23:36;11.47;;;3.73;;
18776;SDS011;9517;51.174;4.160;2023-02-03T09:26:09;13.90;;;4.10;;
18776;SDS011;9517;51.174;4.160;2023-02-03T09:28:40;16.37;;;4.37;;
18776;SDS011;9517;51.174;4.160;2023-02-03T09:31:11;18.77;;;5.10;;
18776;SDS011;9517;51.174;4.160;2023-02-03T09:33:46;15.23;;;5.03;;
18776;SDS011;9517;51.174;4.160;2023-02-03T09:36:30;16.57;;;5.07;;
18776;SDS011;9517;51.174;4.160;2023-02-03T09:39:01;14.17;;;4.13;;
18776;SDS011;9517;51.174;4.160;2023-02-03T09:41:49;13.97;;;4.00;;
18776;SDS011;9517;51.174;4.160;2023-02-03T09:47:34;11.83;;;2.87;;
18776;SDS011;9517;51.174;4.160;2023-02-03T09:50:24;9.90;;;2.77;;
18776;SDS011;9517;51.174;4.160;2023-02-03T09:52:53;10.37;;;2.53;;
18776;SDS011;9517;51.174;4.160;2023-02-03T09:58:33;8.33;;;2.13;;
18776;SDS011;9517;51.174;4.160;2023-02-03T10:04:40;8.80;;;1.60;;
18776;SDS011;9517;51.174;4.160;2023-02-03T10:23:40;9.23;;;1.40;;
18776;SDS011;9517;51.174;4.160;2023-02-03T10:26:54;4.60;;;1.30;;
18776;SDS011;9517;51.174;4.160;2023-02-03T10:29:38;11.27;;;1.73;;
18776;SDS011;9517;51.174;4.160;2023-02-03T10:32:36;12.43;;;2.13;;
18776;SDS011;9517;51.174;4.160;2023-02-03T10:35:43;11.37;;;1.50;;
18776;SDS011;9517;51.174;4.160;2023-02-03T10:41:43;16.57;;;1.60;;
18776;SDS011;9517;51.174;4.160;2023-02-03T10:47:59;10.67;;;1.63;;
18776;SDS011;9517;51.174;4.160;2023-02-03T10:53:25;12.77;;;1.47;;
18776;SDS011;9517;51.174;4.160;2023-02-03T10:56:16;7.67;;;1.43;;
18776;SDS011;9517;51.174;4.160;2023-02-03T12:33:01;11.43;;;1.90;;
18776;SDS011;9517;51.174;4.160;2023-02-03T12:35:38;9.40;;;2.13;;
18776;SDS011;9517;51.174;4.160;2023-02-03T12:38:27;11.13;;;1.67;;
18776;SDS011;9517;51.174;4.160;2023-02-03T12:41:09;9.03;;;2.20;;
18776;SDS011;9517;51.174;4.160;2023-02-03T12:43:41;11.50;;;1.70;;
18776;SDS011;9517;51.174;4.160;2023-02-03T12:46:17;8.27;;;1.37;;
18776;SDS011;9517;51.174;4.160;2023-02-03T12:48:55;7.87;;;1.90;;
18776;SDS011;9517;51.174;4.160;2023-02-03T12:51:37;8.30;;;1.57;;
18776;SDS011;9517;51.174;4.160;2023-02-03T12:54:13;10.33;;;1.70;;
18776;SDS011;9517;51.174;4.160;2023-02-03T12:56:53;10.73;;;1.90;;
18776;SDS011;9517;51.174;4.160;2023-02-03T14:17:58;11.33;;;2.53;;
18776;SDS011;9517;51.174;4.160;2023-02-03T14:41:03;13.23;;;2.90;;
18776;SDS011;9517;51.174;4.160;2023-02-03T14:47:06;11.63;;;2.83;;
18776;SDS011;9517;51.174;4.160;2023-02-03T14:53:30;12.57;;;2.13;;
18776;SDS011;9517;51.174;4.160;2023-02-03T14:56:12;12.53;;;2.20;;
18776;SDS011;9517;51.174;4.160;2023-02-03T14:58:52;9.30;;;2.70;;
18776;SDS011;9517;51.174;4.160;2023-02-03T15:14:57;13.40;;;3.20;;
18776;SDS011;9517;51.174;4.160;2023-02-03T15:17:38;9.80;;;2.80;;
18776;SDS011;9517;51.174;4.160;2023-02-03T15:20:16;11.70;;;3.00;;
18776;SDS011;9517;51.174;4.160;2023-02-03T15:22:56;16.80;;;3.27;;
18776;SDS011;9517;51.174;4.160;2023-02-03T15:25:23;12.60;;;3.20;;
18776;SDS011;9517;51.174;4.160;2023-02-03T15:28:08;12.97;;;2.80;;
18776;SDS011;9517;51.174;4.160;2023-02-03T15:30:42;12.20;;;2.83;;
18776;SDS011;9517;51.174;4.160;2023-02-03T15:33:12;13.93;;;2.80;;
18776;SDS011;9517;51.174;4.160;2023-02-03T15:35:44;13.63;;;3.30;;
18776;SDS011;9517;51.174;4.160;2023-02-03T15:38:14;15.33;;;3.63;;
18776;SDS011;9517;51.174;4.160;2023-02-03T15:40:46;11.43;;;3.10;;
18776;SDS011;9517;51.174;4.160;2023-02-03T15:43:18;16.23;;;3.50;;
18776;SDS011;9517;51.174;4.160;2023-02-03T15:45:54;14.63;;;3.40;;
18776;SDS011;9517;51.174;4.160;2023-02-03T15:48:30;16.43;;;3.23;;
18776;SDS011;9517;51.174;4.160;2023-02-03T15:51:06;12.87;;;2.93;;
18776;SDS011;9517;51.174;4.160;2023-02-03T15:53:42;17.33;;;2.93;;
18776;SDS011;9517;51.174;4.160;2023-02-03T15:56:17;12.13;;;2.97;;
18776;SDS011;9517;51.174;4.160;2023-02-03T15:58:50;13.07;;;3.80;;
18776;SDS011;9517;51.174;4.160;2023-02-03T16:01:24;13.03;;;3.47;;
18776;SDS011;9517;51.174;4.160;2023-02-03T16:03:54;14.40;;;3.30;;
18776;SDS011;9517;51.174;4.160;2023-02-03T16:06:23;17.47;;;3.93;;
18776;SDS011;9517;51.174;4.160;2023-02-03T16:08:54;11.83;;;2.60;;
18776;SDS011;9517;51.174;4.160;2023-02-03T16:11:29;13.47;;;3.07;;
18776;SDS011;9517;51.174;4.160;2023-02-03T16:28:31;14.10;;;4.20;;
18776;SDS011;9517;51.174;4.160;2023-02-03T16:31:32;16.57;;;4.10;;
18776;SDS011;9517;51.174;4.160;2023-02-03T16:34:35;16.33;;;3.57;;
18776;SDS011;9517;51.174;4.160;2023-02-03T16:37:43;16.00;;;3.90;;
18776;SDS011;9517;51.174;4.160;2023-02-03T16:40:27;17.77;;;4.00;;
18776;SDS011;9517;51.174;4.160;2023-02-03T16:43:12;12.07;;;2.97;;
18776;SDS011;9517;51.174;4.160;2023-02-03T16:45:59;14.80;;;3.90;;
18776;SDS011;9517;51.174;4.160;2023-02-03T16:48:44;18.30;;;4.20;;
18776;SDS011;9517;51.174;4.160;2023-02-03T16:51:33;13.63;;;3.37;;
18776;SDS011;9517;51.174;4.160;2023-02-03T16:57:42;15.43;;;4.07;;
18776;SDS011;9517;51.174;4.160;2023-02-03T17:04:18;16.93;;;4.00;;
18776;SDS011;9517;51.174;4.160;2023-02-03T17:07:00;14.27;;;4.80;;
18776;SDS011;9517;51.174;4.160;2023-02-03T17:09:47;18.97;;;5.10;;
18776;SDS011;9517;51.174;4.160;2023-02-03T17:15:38;21.03;;;5.73;;
18776;SDS011;9517;51.174;4.160;2023-02-03T17:50:13;17.10;;;4.77;;
18776;SDS011;9517;51.174;4.160;2023-02-03T17:52:42;14.57;;;4.47;;
18776;SDS011;9517;51.174;4.160;2023-02-03T17:55:09;15.77;;;4.77;;
18776;SDS011;9517;51.174;4.160;2023-02-03T17:57:37;17.43;;;4.30;;
18776;SDS011;9517;51.174;4.160;2023-02-03T18:00:36;14.47;;;4.13;;
18776;SDS011;9517;51.174;4.160;2023-02-03T18:03:05;17.63;;;4.67;;
18776;SDS011;9517;51.174;4.160;2023-02-03T18:12:37;15.50;;;4.67;;
18776;SDS011;9517;51.174;4.160;2023-02-03T18:15:07;16.50;;;4.30;;
18776;SDS011;9517;51.174;4.160;2023-02-03T18:19:54;14.53;;;5.13;;
18776;SDS011;9517;51.174;4.160;2023-02-03T18:21:24;17.63;;;6.13;;
18776;SDS011;9517;51.174;4.160;2023-02-03T18:27:13;15.13;;;5.30;;
18776;SDS011;9517;51.174;4.160;2023-02-03T18:29:49;22.73;;;5.57;;
18776;SDS011;9517;51.174;4.160;2023-02-03T18:32:25;16.20;;;5.43;;
18776;SDS011;9517;51.174;4.160;2023-02-03T18:38:16;15.90;;;5.03;;
18776;SDS011;9517;51.174;4.160;2023-02-03T18:40:46;18.50;;;5.53;;
18776;SDS011;9517;51.174;4.160;2023-02-03T18:43:13;17.00;;;5.47;;
18776;SDS011;9517;51.174;4.160;2023-02-03T18:45:47;17.03;;;4.77;;
18776;SDS011;9517;51.174;4.160;2023-02-03T18:55:07;14.37;;;4.80;;
18776;SDS011;9517;51.174;4.160;2023-02-03T18:57:43;18.67;;;4.40;;
18776;SDS011;9517;51.174;4.160;2023-02-03T19:00:29;16.37;;;5.20;;
18776;SDS011;9517;51.174;4.160;2023-02-03T19:03:04;13.97;;;4.60;;
18776;SDS011;9517;51.174;4.160;2023-02-03T19:05:38;16.07;;;5.20;;
18776;SDS011;9517;51.174;4.160;2023-02-03T19:15:23;24.60;;;8.67;;
18776;SDS011;9517;51.174;4.160;2023-02-03T19:18:06;25.20;;;10.77;;
18776;SDS011;9517;51.174;4.160;2023-02-03T19:20:42;25.53;;;10.60;;
18776;SDS011;9517;51.174;4.160;2023-02-03T19:26:26;22.47;;;9.83;;
18776;SDS011;9517;51.174;4.160;2023-02-03T19:32:30;26.33;;;10.03;;
18776;SDS011;9517;51.174;4.160;2023-02-03T19:39:20;20.40;;;9.00;;
18776;SDS011;9517;51.174;4.160;2023-02-03T19:42:07;19.77;;;8.90;;
18776;SDS011;9517;51.174;4.160;2023-02-03T19:47:57;23.20;;;7.20;;
18776;SDS011;9517;51.174;4.160;2023-02-03T19:50:30;18.77;;;6.40;;
18776;SDS011;9517;51.174;4.160;2023-02-03T19:53:09;17.40;;;5.43;;
18776;SDS011;9517;51.174;4.160;2023-02-03T19:55:40;15.13;;;5.57;;
18776;SDS011;9517;51.174;4.160;2023-02-03T19:58:11;17.50;;;5.40;;
18776;SDS011;9517;51.174;4.160;2023-02-03T20:03:32;13.73;;;5.13;;
18776;SDS011;9517;51.174;4.160;2023-02-03T20:05:59;17.60;;;5.43;;
18776;SDS011;9517;51.174;4.160;2023-02-03T21:19:50;21.47;;;9.73;;
18776;SDS011;9517;51.174;4.160;2023-02-03T21:22:21;21.83;;;9.63;;
18776;SDS011;9517;51.174;4.160;2023-02-03T21:24:54;20.60;;;9.07;;
18776;SDS011;9517;51.174;4.160;2023-02-03T21:27:24;27.73;;;10.70;;
18776;SDS011;9517;51.174;4.160;2023-02-03T21:29:53;28.53;;;11.00;;
18776;SDS011;9517;51.174;4.160;2023-02-03T21:32:22;26.50;;;10.47;;
18776;SDS011;9517;51.174;4.160;2023-02-03T21:34:52;21.13;;;9.80;;
18776;SDS011;9517;51.174;4.160;2023-02-03T21:40:16;21.93;;;10.23;;
18776;SDS011;9517;51.174;4.160;2023-02-03T21:42:49;22.67;;;9.93;;
18776;SDS011;9517;51.174;4.160;2023-02-03T21:45:21;26.13;;;11.00;;
18776;SDS011;9517;51.174;4.160;2023-02-03T21:47:59;19.83;;;9.57;;
18776;SDS011;9517;51.174;4.160;2023-02-03T21:50:30;20.33;;;9.77;;
18776;SDS011;9517;51.174;4.160;2023-02-03T21:53:00;23.77;;;10.37;;
18776;SDS011;9517;51.174;4.160;2023-02-03T21:55:44;21.57;;;9.80;;
18776;SDS011;9517;51.174;4.160;2023-02-03T21:58:17;25.83;;;10.47;;
18776;SDS011;9517;51.174;4.160;2023-02-03T22:00:48;22.33;;;9.63;;
18776;SDS011;9517;51.174;4.160;2023-02-03T22:03:17;21.17;;;10.37;;
18776;SDS011;9517;51.174;4.160;2023-02-03T22:05:56;28.97;;;10.23;;
18776;SDS011;9517;51.174;4.160;2023-02-03T22:08:39;27.33;;;9.33;;
18776;SDS011;9517;51.174;4.160;2023-02-03T22:11:08;20.90;;;9.27;;
18776;SDS011;9517;51.174;4.160;2023-02-03T22:13:36;20.47;;;8.63;;
18776;SDS011;9517;51.174;4.160;2023-02-03T22:16:03;20.60;;;9.57;;
18776;SDS011;9517;51.174;4.160;2023-02-03T22:18:31;21.30;;;9.80;;
18776;SDS011;9517;51.174;4.160;2023-02-03T22:21:00;23.57;;;9.17;;
18776;SDS011;9517;51.174;4.160;2023-02-03T22:23:30;23.13;;;9.57;;
18776;SDS011;9517;51.174;4.160;2023-02-03T22:25:57;19.87;;;8.23;;
18776;SDS011;9517;51.174;4.160;2023-02-03T22:28:25;20.67;;;8.13;;
18776;SDS011;9517;51.174;4.160;2023-02-03T22:30:52;21.07;;;7.67;;
18776;SDS011;9517;51.174;4.160;2023-02-03T22:33:19;16.60;;;7.60;;
18776;SDS011;9517;51.174;4.160;2023-02-03T22:35:46;20.53;;;7.00;;
18776;SDS011;9517;51.174;4.160;2023-02-03T22:38:15;19.80;;;6.83;;
18776;SDS011;9517;51.174;4.160;2023-02-03T22:40:42;18.20;;;6.87;;
18776;SDS011;9517;51.174;4.160;2023-02-03T22:43:09;22.03;;;6.83;;
18776;SDS011;9517;51.174;4.160;2023-02-03T22:45:37;22.53;;;7.30;;
18776;SDS011;9517;51.174;4.160;2023-02-03T22:48:04;18.70;;;6.00;;
18776;SDS011;9517;51.174;4.160;2023-02-03T22:50:31;18.40;;;6.37;;
18776;SDS011;9517;51.174;4.160;2023-02-03T22:52:59;17.53;;;5.73;;
18776;SDS011;9517;51.174;4.160;2023-02-03T22:55:29;15.60;;;6.00;;
18776;SDS011;9517;51.174;4.160;2023-02-03T22:57:57;20.03;;;5.87;;
18776;SDS011;9517;51.174;4.160;2023-02-03T23:00:24;12.93;;;4.67;;
18776;SDS011;9517;51.174;4.160;2023-02-03T23:02:56;18.13;;;5.10;;
18776;SDS011;9517;51.174;4.160;2023-02-03T23:05:23;18.30;;;5.33;;
18776;SDS011;9517;51.174;4.160;2023-02-03T23:07:50;19.13;;;5.33;;
18776;SDS011;9517;51.174;4.160;2023-02-03T23:10:18;11.03;;;4.80;;
18776;SDS011;9517;51.174;4.160;2023-02-03T23:12:48;15.30;;;5.00;;
18776;SDS011;9517;51.174;4.160;2023-02-03T23:15:16;14.30;;;4.90;;
18776;SDS011;9517;51.174;4.160;2023-02-03T23:17:44;15.90;;;4.53;;
18776;SDS011;9517;51.174;4.160;2023-02-03T23:20:12;14.43;;;4.83;;
18776;SDS011;9517;51.174;4.160;2023-02-03T23:22:42;16.07;;;4.80;;
18776;SDS011;9517;51.174;4.160;2023-02-03T23:25:10;18.40;;;4.97;;
18776;SDS011;9517;51.174;4.160;2023-02-03T23:27:37;12.80;;;4.20;;
18776;SDS011;9517;51.174;4.160;2023-02-03T23:30:07;12.43;;;4.17;;
18776;SDS011;9517;51.174;4.160;2023-02-03T23:32:36;17.20;;;4.93;;
18776;SDS011;9517;51.174;4.160;2023-02-03T23:35:03;14.13;;;4.40;;
18776;SDS011;9517;51.174;4.160;2023-02-03T23:38:03;13.47;;;4.70;;
18776;SDS011;9517;51.174;4.160;2023-02-03T23:40:30;14.30;;;4.90;;
18776;SDS011;9517;51.174;4.160;2023-02-03T23:42:57;15.17;;;4.50;;